Météo Nord-Pas-de-Calais   La météo au plus près de chez vous

Station météorologique

Observations météo à Pte De La Hague (50020)

50020001 6 m Dernier relevé à 23:00
19°C
Humidité 95 % Vent 36 km/h 1020.4 hPa

Journée consultée

Mercredi 2 Septembre 2026

Synthèse de la journée

Périodes de référence en UTC

Température maximale

21.7°C

à 17:00

06h 06h

Température minimale

17.1°C

à 00:00

18h 18h

Rafale maximale

53 km/h

à 22:30

00h 00h

Précipitations

0 mm

Cumul quotidien

06h 06h

Graphiques de la journée

Heure locale Réduire

Données détaillées

Relevés météo

Pas de 6 minutes Afficher les relevés infra-horaires
Relevés météo détaillés à Pte De La Hague pour le Mercredi 2 Septembre 2026
Heure Température °C Point de rosée °C Humidité % Vent moyen (raf.), km/h Précipitations mm Pression hPa Nébulosité Octas
23:00 19 °C 18.2 °C 95 % 36 km/h (46 km/h) 0 mm0 mm 1020.4 hPa
22:54 19.1 °C 18.3 °C 95 % 36 km/h (49 km/h) 0 mm0 mm 1020.4 hPa
22:48 19.1 °C 18.1 °C 94 % 38 km/h (49 km/h) 0 mm0 mm 1020.4 hPa
22:42 19.2 °C 18.2 °C 94 % 39 km/h (48 km/h) 0 mm0 mm 1020.3 hPa
22:36 19.2 °C 18.2 °C 94 % 41 km/h (51 km/h) 0 mm0 mm 1020.3 hPa
22:30 19.3 °C 18.1 °C 93 % 42 km/h (53 km/h) 0 mm0 mm 1020.3 hPa
22:24 19.3 °C 18.1 °C 93 % 40 km/h (52 km/h) 0 mm0 mm 1020.4 hPa
22:18 19.3 °C 18.1 °C 93 % 39 km/h (49 km/h) 0 mm0 mm 1020.5 hPa
22:12 19.2 °C 18 °C 93 % 39 km/h (48 km/h) 0 mm0 mm 1020.4 hPa
22:06 19.1 °C 18.1 °C 94 % 36 km/h (48 km/h) 0 mm0 mm 1020.3 hPa
22:00 19.1 °C 18.3 °C 95 % 36 km/h (46 km/h) 0 mm0 mm 1020.4 hPa
21:54 19 °C 18.2 °C 95 % 37 km/h (46 km/h) 0 mm0 mm 1020.4 hPa
21:48 18.9 °C 18.2 °C 96 % 35 km/h (46 km/h) 0 mm0 mm 1020.3 hPa
21:42 18.8 °C 18.1 °C 96 % 33 km/h (45 km/h) 0 mm0 mm 1020.2 hPa
21:36 18.8 °C 18.3 °C 97 % 34 km/h (43 km/h) 0 mm0 mm 1020.2 hPa
21:30 18.8 °C 18.3 °C 97 % 33 km/h (41 km/h) 0 mm0 mm 1020.2 hPa
21:24 18.8 °C 18.3 °C 97 % 33 km/h (42 km/h) 0 mm0 mm 1020.3 hPa
21:18 18.9 °C 18.2 °C 96 % 33 km/h (43 km/h) 0 mm0 mm 1020.2 hPa
21:12 18.8 °C 18.1 °C 96 % 33 km/h (44 km/h) 0 mm0 mm 1020.1 hPa
21:06 18.9 °C 18.1 °C 95 % 36 km/h (45 km/h) 0 mm0 mm 1020 hPa
21:00 18.9 °C 18.1 °C 95 % 36 km/h (46 km/h) 0 mm0 mm 1020 hPa
20:54 18.9 °C 17.9 °C 94 % 35 km/h (45 km/h) 0 mm0 mm 1019.9 hPa
20:48 19 °C 17.8 °C 93 % 36 km/h (48 km/h) 0 mm0 mm 1020 hPa
20:42 19.2 °C 17.7 °C 91 % 37 km/h (49 km/h) 0 mm0 mm 1019.9 hPa
20:36 19.4 °C 17.7 °C 90 % 37 km/h (49 km/h) 0 mm0 mm 1019.8 hPa
20:30 19.5 °C 17.8 °C 90 % 36 km/h (46 km/h) 0 mm0 mm 1019.8 hPa
20:24 19.5 °C 17.5 °C 88 % 34 km/h (45 km/h) 0 mm0 mm 1019.7 hPa
20:18 19.5 °C 17.5 °C 88 % 33 km/h (44 km/h) 0 mm0 mm 1019.7 hPa
20:12 19.6 °C 17.6 °C 88 % 31 km/h (40 km/h) 0 mm0 mm 1019.7 hPa
20:06 19.7 °C 17.7 °C 88 % 31 km/h (42 km/h) 0 mm0 mm 1019.6 hPa
20:00 19.6 °C 17.4 °C 87 % 34 km/h (43 km/h) 0 mm0 mm 1019.7 hPa
19:54 19.7 °C 17.3 °C 86 % 34 km/h (43 km/h) 0 mm0 mm 1019.7 hPa
19:48 20 °C 17.6 °C 86 % 32 km/h (41 km/h) 0 mm0 mm 1019.7 hPa
19:42 19.8 °C 17.4 °C 86 % 32 km/h (40 km/h) 0 mm0 mm 1019.7 hPa
19:36 20 °C 17.4 °C 85 % 32 km/h (42 km/h) 0 mm0 mm 1019.7 hPa
19:30 20.2 °C 17.6 °C 85 % 32 km/h (42 km/h) 0 mm0 mm 1019.8 hPa
19:24 19.9 °C 17.3 °C 85 % 31 km/h (42 km/h) 0 mm0 mm 1019.8 hPa
19:18 19.8 °C 17.4 °C 86 % 29 km/h (40 km/h) 0 mm0 mm 1019.9 hPa
19:12 19.8 °C 17.2 °C 85 % 27 km/h (40 km/h) 0 mm0 mm 1019.9 hPa
19:06 19.8 °C 17.2 °C 85 % 25 km/h (39 km/h) 0 mm0 mm 1019.9 hPa
19:00 19.9 °C 17.3 °C 85 % 25 km/h (33 km/h) 0 mm0 mm 1019.9 hPa
18:54 19.9 °C 17.1 °C 84 % 26 km/h (34 km/h) 0 mm0 mm 1019.9 hPa
18:48 20 °C 17 °C 83 % 26 km/h (34 km/h) 0 mm0 mm 1019.8 hPa
18:42 20.1 °C 17.1 °C 83 % 26 km/h (35 km/h) 0 mm0 mm 1019.9 hPa
18:36 19.9 °C 16.7 °C 82 % 26 km/h (35 km/h) 0 mm0 mm 1019.9 hPa
18:30 19.9 °C 16.7 °C 82 % 28 km/h (36 km/h) 0 mm0 mm 1020 hPa
18:24 19.8 °C 16.6 °C 82 % 28 km/h (36 km/h) 0 mm0 mm 1020.1 hPa
18:18 19.7 °C 16.7 °C 83 % 31 km/h (43 km/h) 0 mm0 mm 1020.2 hPa
18:12 19.5 °C 16.2 °C 81 % 33 km/h (43 km/h) 0 mm0 mm 1020.2 hPa
18:06 20 °C 16.2 °C 79 % 31 km/h (42 km/h) 0 mm0 mm 1020.3 hPa
18:00 20.1 °C 15.9 °C 77 % 30 km/h (38 km/h) 0 mm0 mm 1020.3 hPa
17:54 20.3 °C 15.7 °C 75 % 27 km/h (37 km/h) 0 mm0 mm 1020.3 hPa
17:48 20.5 °C 15.7 °C 74 % 27 km/h (35 km/h) 0 mm0 mm 1020.3 hPa
17:42 20.6 °C 15.8 °C 74 % 26 km/h (33 km/h) 0 mm0 mm 1020.2 hPa
17:36 20.7 °C 15.5 °C 72 % 26 km/h (39 km/h) 0 mm0 mm 1020.2 hPa
17:30 21 °C 15.5 °C 71 % 26 km/h (33 km/h) 0 mm0 mm 1020.3 hPa
17:24 20.7 °C 15.3 °C 71 % 27 km/h (34 km/h) 0 mm0 mm 1020.4 hPa
17:18 20.8 °C 15.1 °C 70 % 27 km/h (36 km/h) 0 mm0 mm 1020.4 hPa
17:12 21.2 °C 15.5 °C 70 % 29 km/h (38 km/h) 0 mm0 mm 1020.4 hPa
17:06 21.4 °C 15 °C 67 % 29 km/h (38 km/h) 0 mm0 mm 1020.4 hPa
17:00 21.2 °C 15.3 °C 69 % 28 km/h (39 km/h) 0 mm0 mm 1020.4 hPa
16:54 21 °C 14.6 °C 67 % 27 km/h (38 km/h) 0 mm0 mm 1020.4 hPa
16:48 21.6 °C 15 °C 66 % 26 km/h (38 km/h) 0 mm0 mm 1020.4 hPa
16:42 21.1 °C 15.2 °C 69 % 27 km/h (35 km/h) 0 mm0 mm 1020.4 hPa
16:36 20.8 °C 15.1 °C 70 % 27 km/h (35 km/h) 0 mm0 mm 1020.4 hPa
16:30 20.8 °C 14.7 °C 68 % 28 km/h (35 km/h) 0 mm0 mm 1020.5 hPa
16:24 20.9 °C 15 °C 69 % 27 km/h (37 km/h) 0 mm0 mm 1020.7 hPa
16:18 21 °C 14.9 °C 68 % 29 km/h (40 km/h) 0 mm0 mm 1020.6 hPa
16:12 20.5 °C 14.2 °C 67 % 32 km/h (46 km/h) 0 mm0 mm 1020.6 hPa
16:06 20.6 °C 14.7 °C 69 % 30 km/h (46 km/h) 0 mm0 mm 1020.7 hPa
16:00 20.5 °C 15.1 °C 71 % 29 km/h (37 km/h) 0 mm0 mm 1020.8 hPa
15:54 20.5 °C 14.2 °C 67 % 29 km/h (38 km/h) 0 mm0 mm 1020.8 hPa
15:48 20.5 °C 14.4 °C 68 % 29 km/h (39 km/h) 0 mm0 mm 1020.8 hPa
15:42 20.6 °C 14.7 °C 69 % 26 km/h (39 km/h) 0 mm0 mm 1020.9 hPa
15:36 20.8 °C 15.1 °C 70 % 27 km/h (34 km/h) 0 mm0 mm 1020.8 hPa
15:30 20.3 °C 14.6 °C 70 % 28 km/h (37 km/h) 0 mm0 mm 1020.9 hPa
15:24 20.1 °C 14.7 °C 71 % 30 km/h (37 km/h) 0 mm0 mm 1020.9 hPa
15:18 20.2 °C 14.8 °C 71 % 28 km/h (37 km/h) 0 mm0 mm 1021 hPa
15:12 20.3 °C 14.9 °C 71 % 26 km/h (36 km/h) 0 mm0 mm 1021 hPa
15:06 20.4 °C 15.2 °C 72 % 27 km/h (35 km/h) 0 mm0 mm 1021.1 hPa
15:00 20.5 °C 14.8 °C 70 % 28 km/h (37 km/h) 0 mm0 mm 1021.1 hPa
14:54 20.2 °C 14.3 °C 69 % 30 km/h (38 km/h) 0 mm0 mm 1021.1 hPa
14:48 20.4 °C 14.7 °C 70 % 31 km/h (40 km/h) 0 mm0 mm 1021.2 hPa
14:42 20.3 °C 14.4 °C 69 % 31 km/h (40 km/h) 0 mm0 mm 1021.2 hPa
14:36 20.6 °C 14.5 °C 68 % 31 km/h (40 km/h) 0 mm0 mm 1021.2 hPa
14:30 20.5 °C 14.4 °C 68 % 31 km/h (39 km/h) 0 mm0 mm 1021.2 hPa
14:24 20.6 °C 14.7 °C 69 % 30 km/h (40 km/h) 0 mm0 mm 1021.3 hPa
14:18 20.4 °C 14.3 °C 68 % 32 km/h (42 km/h) 0 mm0 mm 1021.2 hPa
14:12 20.7 °C 14.1 °C 66 % 35 km/h (42 km/h) 0 mm0 mm 1021.2 hPa
14:06 20.6 °C 14 °C 66 % 32 km/h (42 km/h) 0 mm0 mm 1021.2 hPa
14:00 20.9 °C 14.1 °C 65 % 32 km/h (41 km/h) 0 mm0 mm 1021.2 hPa 8 Octas
13:54 21.1 °C 14.5 °C 66 % 33 km/h (44 km/h) 0 mm0 mm 1021.2 hPa
13:48 21.2 °C 14.6 °C 66 % 32 km/h (42 km/h) 0 mm0 mm 1021.2 hPa
13:42 20.9 °C 13.8 °C 64 % 32 km/h (42 km/h) 0 mm0 mm 1021.3 hPa
13:36 21 °C 14.4 °C 66 % 32 km/h (43 km/h) 0 mm0 mm 1021.3 hPa
13:30 21 °C 14.4 °C 66 % 32 km/h (43 km/h) 0 mm0 mm 1021.4 hPa
13:24 20.9 °C 14.3 °C 66 % 33 km/h (43 km/h) 0 mm0 mm 1021.4 hPa
13:18 20.7 °C 14.3 °C 67 % 32 km/h (43 km/h) 0 mm0 mm 1021.3 hPa
13:12 20.5 °C 14.4 °C 68 % 32 km/h (44 km/h) 0 mm0 mm 1021.3 hPa
13:06 20 °C 13.9 °C 68 % 34 km/h (45 km/h) 0 mm0 mm 1021.4 hPa
13:00 19.9 °C 13.8 °C 68 % 33 km/h (44 km/h) 0 mm0 mm 1021.5 hPa
12:54 20.3 °C 14.2 °C 68 % 31 km/h (42 km/h) 0 mm0 mm 1021.5 hPa
12:48 20.6 °C 14.5 °C 68 % 32 km/h (42 km/h) 0 mm0 mm 1021.5 hPa
12:42 20.3 °C 14.6 °C 70 % 32 km/h (40 km/h) 0 mm0 mm 1021.5 hPa
12:36 20.5 °C 14.6 °C 69 % 31 km/h (40 km/h) 0 mm0 mm 1021.5 hPa
12:30 20.6 °C 14.9 °C 70 % 31 km/h (40 km/h) 0 mm0 mm 1021.5 hPa
12:24 20.4 °C 13.6 °C 65 % 34 km/h (41 km/h) 1021.5 hPa
12:18 20.3 °C 13.7 °C 66 % 33 km/h (41 km/h) 0 mm0 mm 1021.5 hPa
12:12 19.8 °C 13.9 °C 69 % 31 km/h (41 km/h) 0 mm0 mm 1021.5 hPa
12:06 20.1 °C 14.7 °C 71 % 29 km/h (39 km/h) 0 mm0 mm 1021.5 hPa
12:00 20 °C 14.6 °C 71 % 27 km/h (37 km/h) 0 mm0 mm 1021.7 hPa
11:54 19.4 °C 14 °C 71 % 28 km/h (39 km/h) 0 mm0 mm 1021.7 hPa
11:48 19.2 °C 13.8 °C 71 % 27 km/h (39 km/h) 0 mm0 mm 1021.7 hPa
11:42 19.3 °C 14.1 °C 72 % 28 km/h (37 km/h) 0 mm0 mm 1021.6 hPa
11:36 19.3 °C 13.9 °C 71 % 27 km/h (36 km/h) 0 mm0 mm 1021.6 hPa
11:30 19.3 °C 14.5 °C 74 % 26 km/h (36 km/h) 0 mm0 mm 1021.6 hPa
11:24 19.3 °C 13.9 °C 71 % 26 km/h (36 km/h) 0 mm0 mm 1021.6 hPa
11:18 19.2 °C 14 °C 72 % 27 km/h (36 km/h) 0 mm0 mm 1021.6 hPa
11:12 18.9 °C 13.7 °C 72 % 28 km/h (37 km/h) 0 mm0 mm 1021.5 hPa
11:06 18.9 °C 13.7 °C 72 % 28 km/h (37 km/h) 0 mm0 mm 1021.6 hPa
11:00 18.9 °C 14.2 °C 74 % 28 km/h (35 km/h) 0 mm0 mm 1021.4 hPa 8 Octas
10:54 19 °C 14 °C 73 % 28 km/h (37 km/h) 0 mm0 mm 1021.5 hPa
10:48 19 °C 14.3 °C 74 % 28 km/h (37 km/h) 0 mm0 mm 1021.4 hPa
10:42 19 °C 14 °C 73 % 28 km/h (36 km/h) 0 mm0 mm 1021.4 hPa
10:36 18.8 °C 14.3 °C 75 % 28 km/h (36 km/h) 0 mm0 mm 1021.4 hPa
10:30 18.9 °C 14.8 °C 77 % 27 km/h (34 km/h) 0 mm0 mm 1021.4 hPa
10:24 18.9 °C 14.6 °C 76 % 28 km/h (36 km/h) 0 mm0 mm 1021.5 hPa
10:18 18.9 °C 14.6 °C 76 % 29 km/h (36 km/h) 0 mm0 mm 1021.4 hPa
10:12 19 °C 14.7 °C 76 % 30 km/h (36 km/h) 0 mm0 mm 1021.3 hPa
10:06 18.7 °C 14.4 °C 76 % 29 km/h (36 km/h) 0 mm0 mm 1021.2 hPa
10:00 18.6 °C 14.7 °C 78 % 26 km/h (33 km/h) 0 mm0 mm 1021.3 hPa
09:54 18.6 °C 15.1 °C 80 % 26 km/h (32 km/h) 0 mm0 mm 1021.1 hPa
09:48 18.6 °C 14.7 °C 78 % 26 km/h (33 km/h) 0 mm0 mm 1021.1 hPa
09:42 18.5 °C 14.8 °C 79 % 24 km/h (33 km/h) 0 mm0 mm 1021 hPa
09:36 18.5 °C 15 °C 80 % 25 km/h (32 km/h) 0 mm0 mm 1020.9 hPa
09:30 18.4 °C 14.9 °C 80 % 23 km/h (30 km/h) 0 mm0 mm 1021 hPa
09:24 18.5 °C 15.2 °C 81 % 23 km/h (30 km/h) 0 mm0 mm 1020.9 hPa
09:18 18.4 °C 15.1 °C 81 % 24 km/h (30 km/h) 0 mm0 mm 1020.9 hPa
09:12 18.3 °C 15 °C 81 % 24 km/h (31 km/h) 0 mm0 mm 1021 hPa
09:06 18.3 °C 15 °C 81 % 24 km/h (31 km/h) 0 mm0 mm 1020.9 hPa
09:00 18.2 °C 15.1 °C 82 % 22 km/h (29 km/h) 0 mm0 mm 1020.9 hPa
08:54 18.2 °C 15.3 °C 83 % 21 km/h (27 km/h) 0 mm0 mm 1020.9 hPa
08:48 18.1 °C 15 °C 82 % 22 km/h (27 km/h) 0 mm0 mm 1020.9 hPa
08:42 18.1 °C 15.2 °C 83 % 22 km/h (27 km/h) 0 mm0 mm 1020.8 hPa
08:36 18.2 °C 15.3 °C 83 % 22 km/h (28 km/h) 0 mm0 mm 1020.8 hPa
08:30 18.1 °C 15 °C 82 % 23 km/h (29 km/h) 0 mm0 mm 1020.8 hPa
08:24 18 °C 15.1 °C 83 % 22 km/h (29 km/h) 0 mm0 mm 1020.7 hPa
08:18 17.8 °C 14.9 °C 83 % 21 km/h (29 km/h) 0 mm0 mm 1020.7 hPa
08:12 17.7 °C 15.1 °C 85 % 20 km/h (29 km/h) 0 mm0 mm 1020.8 hPa
08:06 17.7 °C 15.1 °C 85 % 21 km/h (28 km/h) 0 mm0 mm 1020.8 hPa
08:00 17.8 °C 15.4 °C 86 % 21 km/h (28 km/h) 0 mm0 mm 1020.9 hPa
07:54 17.7 °C 15.1 °C 85 % 21 km/h (27 km/h) 0 mm0 mm 1020.8 hPa
07:48 17.6 °C 15 °C 85 % 21 km/h (27 km/h) 0 mm0 mm 1020.9 hPa
07:42 17.7 °C 15.1 °C 85 % 22 km/h (26 km/h) 0 mm0 mm 1020.9 hPa
07:36 17.6 °C 15 °C 85 % 20 km/h (26 km/h) 0 mm0 mm 1020.9 hPa
07:30 17.6 °C 15.2 °C 86 % 21 km/h (27 km/h) 0 mm0 mm 1020.9 hPa
07:24 17.6 °C 15 °C 85 % 21 km/h (27 km/h) 0 mm0 mm 1020.9 hPa
07:18 17.6 °C 15.2 °C 86 % 21 km/h (27 km/h) 0 mm0 mm 1020.9 hPa
07:12 17.5 °C 15.1 °C 86 % 22 km/h (27 km/h) 0 mm0 mm 1021 hPa
07:06 17.5 °C 15.1 °C 86 % 21 km/h (28 km/h) 0 mm0 mm 1020.9 hPa
07:00 17.4 °C 15.2 °C 87 % 19 km/h (25 km/h) 0 mm0 mm 1020.8 hPa
06:54 17.5 °C 15.3 °C 87 % 20 km/h (26 km/h) 0 mm0 mm 1020.8 hPa
06:48 17.4 °C 15.2 °C 87 % 19 km/h (26 km/h) 0 mm0 mm 1020.9 hPa
06:42 17.3 °C 15.1 °C 87 % 17 km/h (22 km/h) 0 mm0 mm 1020.8 hPa
06:36 17.4 °C 15.2 °C 87 % 17 km/h (22 km/h) 0 mm0 mm 1020.7 hPa
06:30 17.4 °C 15.2 °C 87 % 18 km/h (22 km/h) 0 mm0 mm 1020.8 hPa
06:24 17.3 °C 14.9 °C 86 % 18 km/h (22 km/h) 0 mm0 mm 1020.9 hPa
06:18 17.4 °C 15.2 °C 87 % 17 km/h (22 km/h) 0 mm0 mm 1020.9 hPa
06:12 17.4 °C 15.4 °C 88 % 16 km/h (19 km/h) 0 mm0 mm 1020.9 hPa
06:06 17.4 °C 15.2 °C 87 % 15 km/h (20 km/h) 0 mm0 mm 1020.9 hPa
06:00 17.4 °C 15.2 °C 87 % 15 km/h (20 km/h) 0 mm0 mm 1020.8 hPa
05:54 17.4 °C 15 °C 86 % 16 km/h (22 km/h) 0 mm0 mm 1020.8 hPa
05:48 17.5 °C 15.5 °C 88 % 17 km/h (22 km/h) 0 mm0 mm 1020.9 hPa
05:42 17.4 °C 15.4 °C 88 % 16 km/h (20 km/h) 0 mm0 mm 1020.9 hPa
05:36 17.4 °C 15.4 °C 88 % 15 km/h (20 km/h) 0 mm0 mm 1021 hPa
05:30 17.4 °C 15.2 °C 87 % 15 km/h (20 km/h) 0 mm0 mm 1021 hPa
05:24 17.4 °C 15.2 °C 87 % 14 km/h (19 km/h) 0 mm0 mm 1021 hPa
05:18 17.5 °C 15.3 °C 87 % 15 km/h (19 km/h) 0 mm0 mm 1021 hPa
05:12 17.5 °C 15.1 °C 86 % 16 km/h (21 km/h) 0 mm0 mm 1021 hPa
05:06 17.5 °C 15.3 °C 87 % 16 km/h (20 km/h) 0 mm0 mm 1021.1 hPa
05:00 17.4 °C 15 °C 86 % 16 km/h (21 km/h) 0 mm0 mm 1021 hPa
04:54 17.6 °C 15.2 °C 86 % 17 km/h (23 km/h) 0 mm0 mm 1021.1 hPa
04:48 17.6 °C 15 °C 85 % 18 km/h (23 km/h) 0 mm0 mm 1021.3 hPa
04:42 17.7 °C 15.3 °C 86 % 19 km/h (24 km/h) 0 mm0 mm 1021.5 hPa
04:36 17.5 °C 14.8 °C 84 % 19 km/h (23 km/h) 0 mm0 mm 1021.5 hPa
04:30 17.5 °C 14.9 °C 85 % 18 km/h (23 km/h) 0 mm0 mm 1021.5 hPa
04:24 17.4 °C 14.9 °C 85 % 17 km/h (21 km/h) 0 mm0 mm 1021.5 hPa
04:18 17.5 °C 15.1 °C 86 % 17 km/h (21 km/h) 0 mm0 mm 1021.5 hPa
04:12 17.5 °C 14.8 °C 84 % 17 km/h (24 km/h) 0 mm0 mm 1021.6 hPa
04:06 17.6 °C 15 °C 85 % 17 km/h (22 km/h) 0 mm0 mm 1021.6 hPa
04:00 17.5 °C 14.8 °C 84 % 18 km/h (23 km/h) 0 mm0 mm 1021.6 hPa
03:54 17.4 °C 14.9 °C 85 % 19 km/h (25 km/h) 0 mm0 mm 1021.6 hPa
03:48 17.5 °C 15.3 °C 87 % 18 km/h (24 km/h) 0 mm0 mm 1021.6 hPa
03:42 17.4 °C 15.2 °C 87 % 18 km/h (24 km/h) 0 mm0 mm 1021.6 hPa
03:36 17.4 °C 15.4 °C 88 % 18 km/h (23 km/h) 0 mm0 mm 1021.5 hPa
03:30 17.3 °C 15.1 °C 87 % 18 km/h (23 km/h) 0 mm0 mm 1021.5 hPa
03:24 17.4 °C 15.2 °C 87 % 19 km/h (26 km/h) 0 mm0 mm 1021.6 hPa
03:18 17.4 °C 15.2 °C 87 % 18 km/h (26 km/h) 0 mm0 mm 1021.7 hPa
03:12 17.4 °C 14.9 °C 85 % 18 km/h (22 km/h) 0 mm0 mm 1021.7 hPa
03:06 17.5 °C 15.1 °C 86 % 18 km/h (23 km/h) 0 mm0 mm 1021.8 hPa
03:00 17.5 °C 14.9 °C 85 % 19 km/h (25 km/h) 0 mm0 mm 1021.8 hPa
02:54 17.5 °C 14.8 °C 84 % 19 km/h (25 km/h) 0 mm0 mm 1021.8 hPa
02:48 17.6 °C 14.9 °C 84 % 19 km/h (24 km/h) 0 mm0 mm 1021.8 hPa
02:42 17.5 °C 14.8 °C 84 % 19 km/h (24 km/h) 0 mm0 mm 1021.8 hPa
02:36 17.5 °C 14.6 °C 83 % 18 km/h (24 km/h) 0 mm0 mm 1021.7 hPa
02:30 17.5 °C 14.4 °C 82 % 19 km/h (24 km/h) 0 mm0 mm 1021.8 hPa
02:24 17.5 °C 14.6 °C 83 % 18 km/h (24 km/h) 0 mm0 mm 1021.8 hPa
02:18 17.4 °C 14.3 °C 82 % 18 km/h (23 km/h) 0 mm0 mm 1021.9 hPa
02:12 17.5 °C 14.4 °C 82 % 19 km/h (24 km/h) 0 mm0 mm 1021.8 hPa
02:06 17.5 °C 14 °C 80 % 19 km/h (26 km/h) 0 mm0 mm 1021.8 hPa
02:00 17.5 °C 14.2 °C 81 % 19 km/h (24 km/h) 0 mm0 mm 1021.7 hPa
01:54 17.4 °C 13.9 °C 80 % 18 km/h (23 km/h) 0 mm0 mm 1021.7 hPa
01:48 17.4 °C 14.1 °C 81 % 19 km/h (23 km/h) 0 mm0 mm 1021.8 hPa
01:42 17.3 °C 14 °C 81 % 18 km/h (23 km/h) 0 mm0 mm 1021.8 hPa
01:36 17.3 °C 14 °C 81 % 18 km/h (23 km/h) 0 mm0 mm 1021.8 hPa
01:30 17.3 °C 14 °C 81 % 17 km/h (22 km/h) 0 mm0 mm 1021.7 hPa
01:24 17.3 °C 14 °C 81 % 18 km/h (24 km/h) 0 mm0 mm 1021.7 hPa
01:18 17.4 °C 14.1 °C 81 % 17 km/h (22 km/h) 0 mm0 mm 1021.7 hPa
01:12 17.4 °C 14.1 °C 81 % 17 km/h (22 km/h) 0 mm0 mm 1021.8 hPa
01:06 17.4 °C 14.3 °C 82 % 17 km/h (21 km/h) 0 mm0 mm 1021.8 hPa
01:00 17.5 °C 14.4 °C 82 % 18 km/h (23 km/h) 0 mm0 mm 1021.9 hPa
00:54 17.5 °C 14.4 °C 82 % 20 km/h (23 km/h) 0 mm0 mm 1022 hPa
00:48 17.6 °C 14.3 °C 81 % 19 km/h (23 km/h) 0 mm0 mm 1022 hPa
00:42 17.5 °C 13.8 °C 79 % 19 km/h (24 km/h) 0 mm0 mm 1021.9 hPa
00:36 17.5 °C 14 °C 80 % 19 km/h (24 km/h) 0 mm0 mm 1022 hPa
00:30 17.5 °C 14 °C 80 % 19 km/h (24 km/h) 0 mm0 mm 1022 hPa
00:24 17.4 °C 13.9 °C 80 % 19 km/h (23 km/h) 0 mm0 mm 1022 hPa
00:18 17.4 °C 13.9 °C 80 % 18 km/h (22 km/h) 0 mm0 mm 1022 hPa
00:12 17.3 °C 13.8 °C 80 % 18 km/h (22 km/h) 0 mm0 mm 1021.9 hPa
00:06 17.3 °C 13.6 °C 79 % 18 km/h (22 km/h) 0 mm0 mm 1022 hPa
00:00 17.3 °C 13.8 °C 80 % 17 km/h (22 km/h) 0 mm0 mm 1022 hPa

Données via Météo-France

Relevés météo à Pte De La Hague

Cette page rassemble les observations de la station de Pte De La Hague : température, humidité, vent, précipitations et pression atmosphérique. Les graphiques facilitent le suivi de la journée, tandis que le tableau donne accès aux mesures horaires et infra-horaires disponibles.

Pour replacer ces mesures dans leur contexte, consultez la climatologie de Pte De La Hague. Retrouvez aussi la carte des observations météo en temps réel.